SAZT/TDL METAR and TAF weather

Enter ICAO airport designator
Station Type Date Time Source
SAZT METAR 2019/08/25 12:15 UTC NOAA

SAZT 251215Z 04006KT 1200 BR OVC002 07/07 Q1022


Station Type Date Time Source
SAZT Decoded METAR 2019/08/25 12:15 UTC NOAA

Station name not available
Aug 25, 2019 - 08:15 AM EDT / 2019.08.25 1215 UTC
Wind: from the NE (040 degrees) at 7 MPH (6 KT):0
Visibility: less than 1 mile:0
Sky conditions: overcast
Weather: mist
Temperature: 44 F (7 C)
Dew Point: 44 F (7 C)
Relative Humidity: 100%
Pressure (altimeter): 30.18 in. Hg (1022 hPa)
ob: SAZT 251215Z 04006KT 1200 BR OVC002 07/07 Q1022
cycle: 12

Station Type Date Time Source
SAZT TAF UTC NOAA

Error!

Example: see airport list